createdAt,value
2017-07-17T00:01:36.842Z,19.20
2017-07-17T00:04:05.868Z,19.10
2017-07-17T00:06:34.154Z,19.00
2017-07-17T00:09:02.420Z,19.00
2017-07-17T00:11:30.710Z,19.10
2017-07-17T00:13:59.014Z,19.10
2017-07-17T00:16:28.069Z,19.10
2017-07-17T00:18:56.350Z,19.10
2017-07-17T00:21:24.648Z,19.00
2017-07-17T00:23:52.917Z,19.00
2017-07-17T00:26:21.159Z,19.10
2017-07-17T00:28:49.473Z,19.10
2017-07-17T00:31:17.712Z,19.00
2017-07-17T00:33:46.002Z,19.00
2017-07-17T00:36:14.259Z,19.00
2017-07-17T00:38:42.517Z,18.90
2017-07-17T00:41:10.765Z,18.90
2017-07-17T00:43:39.035Z,18.90
2017-07-17T00:46:07.299Z,18.80
2017-07-17T00:48:35.587Z,18.90
2017-07-17T00:51:03.843Z,18.90
2017-07-17T00:53:32.098Z,18.90
2017-07-17T00:56:01.142Z,18.90
2017-07-17T00:58:29.428Z,18.90
2017-07-17T01:00:57.697Z,19.00
2017-07-17T01:03:25.960Z,19.00
2017-07-17T01:05:54.236Z,18.90
2017-07-17T01:08:22.485Z,19.00
2017-07-17T01:10:51.500Z,19.10
2017-07-17T01:13:19.776Z,19.10
2017-07-17T01:15:48.039Z,19.20
2017-07-17T01:18:16.294Z,19.20
2017-07-17T01:20:45.348Z,19.00
2017-07-17T01:23:13.590Z,19.00
2017-07-17T01:25:41.831Z,18.90
2017-07-17T01:28:10.101Z,19.00
2017-07-17T01:30:38.355Z,19.00
2017-07-17T01:33:06.626Z,19.00
2017-07-17T01:35:34.871Z,18.90
2017-07-17T01:38:03.151Z,18.90
2017-07-17T01:40:31.438Z,18.90
2017-07-17T01:42:59.763Z,18.90
2017-07-17T01:45:28.027Z,18.80
2017-07-17T01:47:56.301Z,18.90
2017-07-17T01:50:24.584Z,18.80
2017-07-17T01:52:52.936Z,18.80
2017-07-17T01:55:21.192Z,18.90
2017-07-17T01:57:49.459Z,19.00
2017-07-17T02:00:17.764Z,19.00
2017-07-17T02:02:46.042Z,19.10
2017-07-17T02:05:14.376Z,19.10
2017-07-17T02:07:42.676Z,19.00
2017-07-17T02:10:10.954Z,18.90
2017-07-17T02:12:39.227Z,18.90
2017-07-17T02:15:07.484Z,19.00
2017-07-17T02:17:36.523Z,18.90
2017-07-17T02:20:04.768Z,18.80
2017-07-17T02:22:33.829Z,18.90
2017-07-17T02:25:02.079Z,18.90
2017-07-17T02:27:30.341Z,19.00
2017-07-17T02:29:58.630Z,19.10
2017-07-17T02:32:26.895Z,19.10
2017-07-17T02:34:55.165Z,19.00
2017-07-17T02:37:23.426Z,19.00
2017-07-17T02:39:52.455Z,19.00
2017-07-17T02:42:20.706Z,19.00
2017-07-17T02:44:49.115Z,19.10
2017-07-17T02:47:17.397Z,19.00
2017-07-17T02:49:45.667Z,18.90
2017-07-17T02:52:13.904Z,18.80
2017-07-17T02:54:42.941Z,18.80
2017-07-17T02:57:11.174Z,18.80
2017-07-17T02:59:40.188Z,18.70
2017-07-17T03:02:08.463Z,18.70
2017-07-17T03:04:36.711Z,18.60
2017-07-17T03:07:04.957Z,18.60
2017-07-17T03:09:33.242Z,18.60
2017-07-17T03:12:01.511Z,18.60
2017-07-17T03:14:29.753Z,18.60
2017-07-17T03:16:58.055Z,18.60
2017-07-17T03:19:26.327Z,18.60
2017-07-17T03:21:54.590Z,18.60
2017-07-17T03:24:22.833Z,18.60
2017-07-17T03:26:51.879Z,18.70
2017-07-17T03:29:20.133Z,18.70
2017-07-17T03:31:48.414Z,18.80
2017-07-17T03:34:16.663Z,18.80
2017-07-17T03:36:45.698Z,18.70
2017-07-17T03:39:13.949Z,18.60
2017-07-17T03:41:42.968Z,18.70
2017-07-17T03:44:11.247Z,18.70
2017-07-17T03:46:39.504Z,18.80
2017-07-17T03:49:07.761Z,18.80
2017-07-17T03:51:36.847Z,18.80
2017-07-17T03:54:05.175Z,18.80
2017-07-17T03:56:33.382Z,18.80
2017-07-17T03:59:01.644Z,18.80
2017-07-17T04:01:29.897Z,18.90
2017-07-17T04:03:58.169Z,18.90
2017-07-17T04:06:26.417Z,19.00
2017-07-17T04:08:55.448Z,19.00
2017-07-17T04:11:23.708Z,19.00
2017-07-17T04:13:51.955Z,19.00
2017-07-17T04:16:20.226Z,19.00
2017-07-17T04:18:48.484Z,18.90
2017-07-17T04:21:16.738Z,18.90
2017-07-17T04:23:44.990Z,18.90
2017-07-17T04:26:13.268Z,18.80
2017-07-17T04:28:42.288Z,18.60
2017-07-17T04:31:10.538Z,18.70
2017-07-17T04:33:38.799Z,18.70
2017-07-17T04:36:07.827Z,18.90
2017-07-17T04:38:36.076Z,18.80
2017-07-17T04:41:04.319Z,18.70
2017-07-17T04:43:32.591Z,18.70
2017-07-17T04:46:00.840Z,18.70
2017-07-17T04:48:29.116Z,18.70
2017-07-17T04:50:57.390Z,18.50
2017-07-17T04:53:25.670Z,18.40
2017-07-17T04:55:53.923Z,18.40
2017-07-17T04:58:22.181Z,18.30
2017-07-17T05:00:51.199Z,18.20
2017-07-17T05:03:19.449Z,18.20
2017-07-17T05:05:47.707Z,18.10
2017-07-17T05:08:15.983Z,17.90
2017-07-17T05:10:44.227Z,17.90
2017-07-17T05:13:12.508Z,17.90
2017-07-17T05:15:40.837Z,17.90
2017-07-17T05:18:09.079Z,17.90
2017-07-17T05:20:37.369Z,17.80
2017-07-17T05:23:05.622Z,17.70
2017-07-17T05:25:33.821Z,17.60
2017-07-17T05:28:02.134Z,17.60
2017-07-17T05:30:31.190Z,17.50
2017-07-17T05:32:59.454Z,17.50
2017-07-17T05:35:27.702Z,17.50
2017-07-17T05:37:55.978Z,17.60
2017-07-17T05:40:24.259Z,17.70
2017-07-17T05:42:52.528Z,17.80
2017-07-17T05:45:20.768Z,17.80
2017-07-17T05:47:49.003Z,17.80
2017-07-17T05:50:17.313Z,17.80
2017-07-17T05:52:45.579Z,17.90
2017-07-17T05:55:13.835Z,17.90
2017-07-17T05:57:42.111Z,18.10
2017-07-17T06:00:10.375Z,18.00
2017-07-17T06:02:38.643Z,18.10
2017-07-17T06:05:06.877Z,18.20
2017-07-17T06:07:35.147Z,18.20
2017-07-17T06:10:03.401Z,18.20
2017-07-17T06:12:31.659Z,18.20
2017-07-17T06:15:00.143Z,18.30
2017-07-17T06:17:28.383Z,18.40
2017-07-17T06:19:56.631Z,18.40
2017-07-17T06:22:24.893Z,18.50
2017-07-17T06:24:53.173Z,18.50
2017-07-17T06:27:21.439Z,18.50
2017-07-17T06:29:49.688Z,18.50
2017-07-17T06:32:18.683Z,18.50
2017-07-17T06:34:47.712Z,18.60
2017-07-17T06:37:15.940Z,18.50
2017-07-17T06:39:44.979Z,18.70
2017-07-17T06:42:13.228Z,18.70
2017-07-17T06:44:41.489Z,18.70
2017-07-17T06:47:10.512Z,18.90
2017-07-17T06:49:38.759Z,18.90
2017-07-17T06:52:07.808Z,18.80
2017-07-17T06:54:36.050Z,18.80
2017-07-17T06:57:05.044Z,18.60
2017-07-17T06:59:34.083Z,18.50
2017-07-17T07:02:02.339Z,18.50
2017-07-17T07:04:30.608Z,18.60
2017-07-17T07:06:58.859Z,18.60
2017-07-17T07:09:27.898Z,18.70
2017-07-17T07:11:56.119Z,18.70
2017-07-17T07:14:25.193Z,18.60
2017-07-17T07:16:53.467Z,18.70
2017-07-17T07:19:21.737Z,18.40
2017-07-17T07:21:50.008Z,18.40
2017-07-17T07:24:18.308Z,18.50
2017-07-17T07:26:46.557Z,18.60
2017-07-17T07:29:14.828Z,18.60
2017-07-17T07:31:43.076Z,18.50
2017-07-17T07:34:11.352Z,18.40
2017-07-17T07:36:39.607Z,18.30
2017-07-17T07:39:08.632Z,18.60
2017-07-17T07:41:37.617Z,18.70
2017-07-17T07:44:05.998Z,18.70
2017-07-17T07:46:34.273Z,18.80
2017-07-17T07:49:03.258Z,19.20
2017-07-17T07:51:31.537Z,19.20
2017-07-17T07:54:00.552Z,19.20
2017-07-17T07:56:28.839Z,19.20
2017-07-17T07:58:57.106Z,19.30
2017-07-17T08:01:26.122Z,19.30
2017-07-17T08:03:54.489Z,19.30
2017-07-17T08:06:23.483Z,19.20
2017-07-17T08:08:51.736Z,19.20
2017-07-17T08:11:20.749Z,19.20
2017-07-17T08:13:49.005Z,19.20
2017-07-17T08:16:18.051Z,19.00
2017-07-17T08:18:46.304Z,19.00
2017-07-17T08:21:14.536Z,19.00
2017-07-17T08:23:43.716Z,18.50
2017-07-17T08:26:12.059Z,18.50
2017-07-17T08:28:40.286Z,18.40
2017-07-17T08:31:09.327Z,18.40
2017-07-17T08:33:37.576Z,18.40
2017-07-17T08:36:06.605Z,18.10
2017-07-17T08:38:34.852Z,18.10
2017-07-17T08:41:03.151Z,18.20
2017-07-17T08:43:31.392Z,18.20
2017-07-17T08:46:00.441Z,18.20
2017-07-17T08:48:28.707Z,18.20
2017-07-17T08:50:57.028Z,18.40
2017-07-17T08:53:25.264Z,18.50
2017-07-17T08:55:53.546Z,18.70
2017-07-17T08:58:21.797Z,18.90
2017-07-17T09:00:50.085Z,18.90
2017-07-17T09:03:18.349Z,18.90
2017-07-17T09:05:46.603Z,18.70
2017-07-17T09:08:14.923Z,18.80
2017-07-17T09:10:43.160Z,18.70
2017-07-17T09:13:12.200Z,18.70
2017-07-17T09:15:40.497Z,18.70
2017-07-17T09:18:08.768Z,18.60
2017-07-17T09:20:37.054Z,18.70
2017-07-17T09:23:05.324Z,18.60
2017-07-17T09:25:33.672Z,18.70
2017-07-17T09:28:01.930Z,18.70
2017-07-17T09:30:30.195Z,18.60
2017-07-17T09:32:59.229Z,18.70
2017-07-17T09:35:27.494Z,18.70
2017-07-17T09:37:55.785Z,18.70
2017-07-17T09:40:24.043Z,18.70
2017-07-17T09:42:52.294Z,18.50
2017-07-17T09:45:21.318Z,18.50
2017-07-17T09:47:49.602Z,18.50
2017-07-17T09:50:17.875Z,18.50
2017-07-17T09:52:46.110Z,18.50
2017-07-17T09:55:14.416Z,18.60
2017-07-17T09:57:42.667Z,18.60
2017-07-17T10:00:10.943Z,18.60
2017-07-17T10:02:39.227Z,18.50
2017-07-17T10:05:07.468Z,18.40
2017-07-17T10:07:35.743Z,18.50
2017-07-17T10:10:04.032Z,18.40
2017-07-17T10:12:32.303Z,18.40
2017-07-17T10:15:00.585Z,18.50
2017-07-17T10:17:29.776Z,18.40
2017-07-17T10:19:58.013Z,18.30
2017-07-17T10:22:26.270Z,18.40
2017-07-17T10:24:55.294Z,18.60
2017-07-17T10:27:23.562Z,18.60
2017-07-17T10:29:51.868Z,18.70
2017-07-17T10:32:20.092Z,18.90
2017-07-17T10:34:48.379Z,19.10
2017-07-17T10:37:17.445Z,19.30
2017-07-17T10:39:47.265Z,19.40
2017-07-17T10:42:16.321Z,19.30
2017-07-17T10:44:44.576Z,19.50
2017-07-17T10:47:12.854Z,19.50
2017-07-17T10:49:41.175Z,19.50
2017-07-17T10:52:09.450Z,19.50
2017-07-17T10:54:37.695Z,19.40
2017-07-17T10:57:05.981Z,19.40
2017-07-17T10:59:34.288Z,19.50
2017-07-17T11:02:02.564Z,19.50
2017-07-17T11:04:30.828Z,19.40
2017-07-17T11:06:59.071Z,19.40
2017-07-17T11:09:27.371Z,19.40
2017-07-17T11:11:55.641Z,19.30
2017-07-17T11:14:23.900Z,19.20
2017-07-17T11:16:52.905Z,19.20
2017-07-17T11:19:21.190Z,19.20
2017-07-17T11:21:49.436Z,19.30
2017-07-17T11:24:17.743Z,19.40
2017-07-17T11:26:45.992Z,19.40
2017-07-17T11:29:14.264Z,19.40
2017-07-17T11:31:43.464Z,19.70
2017-07-17T11:34:12.482Z,20.40
2017-07-17T11:36:40.761Z,20.40
2017-07-17T11:39:09.018Z,20.50
2017-07-17T11:41:38.038Z,21.10
2017-07-17T11:44:06.427Z,21.10
2017-07-17T11:56:49.139Z,21.70
2017-07-17T11:59:17.415Z,21.70
2017-07-17T12:01:45.733Z,21.70
2017-07-17T12:04:13.980Z,21.70
2017-07-17T12:06:42.260Z,21.70
2017-07-17T12:09:10.535Z,21.70
2017-07-17T12:11:38.803Z,21.70
2017-07-17T12:14:07.067Z,21.70
2017-07-17T12:16:35.377Z,21.80
2017-07-17T12:19:03.639Z,21.60
2017-07-17T12:21:31.894Z,21.50
2017-07-17T12:24:01.071Z,21.70
2017-07-17T12:26:29.386Z,21.70
2017-07-17T12:28:57.674Z,22.00
2017-07-17T12:31:25.978Z,22.40
2017-07-17T12:33:55.038Z,22.40
2017-07-17T12:36:23.322Z,22.40
2017-07-17T12:38:52.374Z,22.50
2017-07-17T12:41:20.635Z,22.40
2017-07-17T12:43:48.906Z,22.40
2017-07-17T12:46:18.004Z,22.30
2017-07-17T12:48:46.239Z,22.30
2017-07-17T12:51:14.598Z,22.10
2017-07-17T12:53:42.836Z,22.20
2017-07-17T12:56:11.127Z,22.50
2017-07-17T12:58:39.394Z,22.50
2017-07-17T13:01:07.702Z,22.50
2017-07-17T13:03:35.949Z,22.70
2017-07-17T13:06:04.224Z,22.70
2017-07-17T13:08:33.470Z,22.70
2017-07-17T13:11:01.714Z,22.60
2017-07-17T13:13:30.011Z,22.60
2017-07-17T13:15:58.259Z,22.60
2017-07-17T13:18:26.576Z,22.40
2017-07-17T13:20:54.838Z,22.50
2017-07-17T13:23:23.114Z,22.30
2017-07-17T13:25:51.510Z,22.40
2017-07-17T13:28:19.778Z,22.40
2017-07-17T13:30:48.025Z,22.60
2017-07-17T13:33:16.314Z,22.80
2017-07-17T13:35:44.571Z,22.70
2017-07-17T13:38:12.833Z,22.60
2017-07-17T13:40:41.884Z,22.30
2017-07-17T13:43:10.148Z,22.30
2017-07-17T13:45:38.404Z,22.30
2017-07-17T13:48:07.497Z,22.70
2017-07-17T13:50:36.529Z,22.60
2017-07-17T13:53:04.785Z,22.60
2017-07-17T13:55:33.054Z,22.80
2017-07-17T13:58:01.355Z,23.00
2017-07-17T14:00:29.586Z,23.10
2017-07-17T14:02:58.161Z,23.20
2017-07-17T14:05:26.418Z,23.50
2017-07-17T14:07:54.775Z,23.80
2017-07-17T14:10:23.345Z,24.00
2017-07-17T14:12:51.662Z,24.00
2017-07-17T14:15:20.012Z,23.80
2017-07-17T14:17:48.273Z,23.60
2017-07-17T14:20:16.587Z,23.70
2017-07-17T14:22:44.840Z,23.70
2017-07-17T14:25:13.115Z,23.80
2017-07-17T14:27:41.393Z,23.80
2017-07-17T14:30:09.758Z,23.70
2017-07-17T14:32:37.997Z,23.30
2017-07-17T14:35:06.285Z,23.20
2017-07-17T14:37:34.558Z,22.90
2017-07-17T14:40:03.647Z,22.90
2017-07-17T14:42:32.901Z,22.90
2017-07-17T14:45:01.166Z,23.00
2017-07-17T14:47:29.452Z,23.20
2017-07-17T14:49:57.681Z,23.60
2017-07-17T14:52:26.708Z,24.10
2017-07-17T14:54:54.991Z,24.10
2017-07-17T14:57:23.265Z,24.30
2017-07-17T14:59:51.662Z,24.10
2017-07-17T15:02:19.880Z,23.70
2017-07-17T15:04:48.936Z,23.70
2017-07-17T15:07:17.215Z,23.70
2017-07-17T15:09:45.473Z,23.60
2017-07-17T15:12:13.747Z,23.20
2017-07-17T15:14:42.767Z,23.00
2017-07-17T15:17:11.020Z,22.90
2017-07-17T15:19:39.328Z,23.00
2017-07-17T15:22:07.599Z,23.00
2017-07-17T15:24:35.889Z,23.00
2017-07-17T15:27:04.165Z,23.20
2017-07-17T15:29:32.446Z,23.30
2017-07-17T15:32:00.692Z,23.40
2017-07-17T15:34:29.084Z,23.50
2017-07-17T15:36:57.325Z,23.40
2017-07-17T15:39:26.354Z,23.60
2017-07-17T15:41:54.635Z,23.50
2017-07-17T15:44:22.908Z,23.60
2017-07-17T15:46:51.386Z,23.60
2017-07-17T15:49:19.695Z,23.70
2017-07-17T15:51:47.922Z,23.60
2017-07-17T15:54:16.196Z,23.50
2017-07-17T15:56:45.272Z,23.70
2017-07-17T15:59:13.591Z,23.60
2017-07-17T16:01:42.386Z,23.70
2017-07-17T16:04:10.635Z,23.60
2017-07-17T16:06:38.872Z,23.50
2017-07-17T16:09:07.182Z,23.50
2017-07-17T16:11:36.819Z,23.40
2017-07-17T16:14:05.057Z,23.40
2017-07-17T16:16:34.106Z,23.40
2017-07-17T16:19:02.373Z,23.30
2017-07-17T16:21:30.616Z,23.40
2017-07-17T16:23:59.662Z,23.50
2017-07-17T16:26:28.779Z,23.50
2017-07-17T16:28:57.826Z,23.30
2017-07-17T16:31:26.706Z,23.20
2017-07-17T16:33:54.955Z,23.30
2017-07-17T16:36:24.218Z,23.30
2017-07-17T16:38:52.461Z,23.20
2017-07-17T16:41:20.722Z,23.20
2017-07-17T16:43:49.647Z,23.00
2017-07-17T16:46:17.892Z,23.00
2017-07-17T16:48:46.902Z,23.00
2017-07-17T16:51:15.178Z,23.00
2017-07-17T16:53:43.405Z,23.10
2017-07-17T16:56:11.675Z,23.20
2017-07-17T16:58:39.951Z,23.20
2017-07-17T17:01:08.177Z,23.20
2017-07-17T17:03:36.443Z,23.30
2017-07-17T17:06:04.736Z,23.30
2017-07-17T17:08:33.904Z,23.30
2017-07-17T17:11:02.172Z,23.10
2017-07-17T17:13:30.449Z,23.20
2017-07-17T17:15:59.521Z,23.00
2017-07-17T17:18:27.829Z,23.00
2017-07-17T17:20:56.110Z,23.10
2017-07-17T17:23:24.335Z,23.00
2017-07-17T17:25:52.615Z,22.80
2017-07-17T17:28:20.869Z,22.80
2017-07-17T17:30:49.114Z,23.00
2017-07-17T17:33:17.395Z,23.10
2017-07-17T17:35:47.244Z,23.10
2017-07-17T17:38:16.269Z,23.20
2017-07-17T17:40:44.538Z,23.10
2017-07-17T17:43:12.885Z,23.10
2017-07-17T17:45:41.149Z,23.00
2017-07-17T17:48:11.120Z,23.00
2017-07-17T17:50:39.403Z,23.00
2017-07-17T17:53:07.678Z,23.00
2017-07-17T17:55:35.990Z,23.00
2017-07-17T17:58:04.253Z,23.10
2017-07-17T18:00:32.512Z,23.10
2017-07-17T18:03:00.781Z,23.10
2017-07-17T18:05:29.046Z,23.10
2017-07-17T18:07:58.001Z,23.00
2017-07-17T18:10:27.086Z,22.70
2017-07-17T18:12:56.118Z,22.50
2017-07-17T18:15:24.359Z,22.40
2017-07-17T18:17:53.409Z,22.40
2017-07-17T18:20:21.687Z,22.40
2017-07-17T18:22:49.935Z,22.50
2017-07-17T18:25:19.064Z,22.10
2017-07-17T18:27:47.310Z,22.00
2017-07-17T18:30:15.607Z,22.00
2017-07-17T18:32:44.724Z,21.70
2017-07-17T18:35:13.119Z,21.60
2017-07-17T18:37:42.981Z,21.40
2017-07-17T18:40:12.473Z,21.10
2017-07-17T18:42:41.597Z,20.90
2017-07-17T18:45:09.871Z,20.80
2017-07-17T18:47:38.117Z,20.60
2017-07-17T18:50:08.111Z,20.20
2017-07-17T18:52:36.387Z,20.20
2017-07-17T18:55:05.436Z,20.10
2017-07-17T18:57:33.725Z,20.00
2017-07-17T19:00:02.008Z,19.90
2017-07-17T19:02:30.319Z,19.80
2017-07-17T19:04:59.485Z,19.60
2017-07-17T19:07:27.758Z,19.60
2017-07-17T19:09:56.055Z,19.50
2017-07-17T19:12:24.306Z,19.60
2017-07-17T19:14:52.584Z,19.40
2017-07-17T19:17:21.575Z,19.30
2017-07-17T19:19:49.915Z,19.30
2017-07-17T19:22:18.641Z,19.20
2017-07-17T19:24:46.849Z,19.20
2017-07-17T19:27:15.911Z,19.20
2017-07-17T19:29:44.191Z,19.10
2017-07-17T19:32:12.509Z,19.10
2017-07-17T19:34:40.779Z,18.90
2017-07-17T19:37:09.078Z,18.80
2017-07-17T19:39:37.316Z,18.70
2017-07-17T19:42:05.587Z,18.70
2017-07-17T19:44:33.841Z,18.40
2017-07-17T19:47:02.129Z,18.20
2017-07-17T19:49:30.425Z,18.30
2017-07-17T19:51:58.674Z,18.20
2017-07-17T19:54:26.982Z,17.90
2017-07-17T19:56:55.342Z,17.70
2017-07-17T19:59:24.540Z,17.50
2017-07-17T20:01:52.808Z,17.50
2017-07-17T20:04:21.062Z,17.40
2017-07-17T20:06:50.713Z,17.20
2017-07-17T20:09:18.999Z,17.30
2017-07-17T20:11:47.300Z,17.10
2017-07-17T20:14:15.673Z,17.00
2017-07-17T20:16:43.949Z,17.00
2017-07-17T20:19:12.256Z,17.00
2017-07-17T20:21:40.869Z,16.90
2017-07-17T20:24:09.157Z,16.80
2017-07-17T20:26:37.595Z,16.80
2017-07-17T20:29:05.859Z,16.70
2017-07-17T20:31:34.908Z,16.50
2017-07-17T20:34:03.194Z,16.50
2017-07-17T20:36:31.474Z,16.40
2017-07-17T20:39:00.051Z,16.40
2017-07-17T20:41:28.385Z,16.20
2017-07-17T20:43:57.415Z,16.30
2017-07-17T20:46:25.747Z,16.20
2017-07-17T20:48:54.027Z,16.20
2017-07-17T20:51:22.306Z,16.10
2017-07-17T20:53:51.355Z,15.90
2017-07-17T20:56:19.652Z,15.90
2017-07-17T20:58:47.938Z,15.90
2017-07-17T21:01:16.220Z,15.90
2017-07-17T21:03:44.482Z,15.80
2017-07-17T21:06:12.824Z,15.70
2017-07-17T21:08:41.139Z,15.60
2017-07-17T21:11:09.454Z,15.60
2017-07-17T21:13:37.701Z,15.50
2017-07-17T21:16:05.938Z,15.40
2017-07-17T21:18:34.192Z,15.40
2017-07-17T21:21:03.269Z,15.40
2017-07-17T21:23:31.528Z,15.40
2017-07-17T21:25:59.807Z,15.30
2017-07-17T21:28:28.086Z,15.40
2017-07-17T21:30:56.347Z,15.30
2017-07-17T21:33:24.695Z,15.20
2017-07-17T21:35:52.939Z,15.00
2017-07-17T21:38:22.041Z,15.00
2017-07-17T21:40:52.272Z,14.90
2017-07-17T21:43:21.315Z,14.90
2017-07-17T21:45:49.558Z,14.80
2017-07-17T21:48:17.993Z,14.80
2017-07-17T21:50:46.409Z,14.80
2017-07-17T21:53:14.759Z,14.60
2017-07-17T21:55:43.115Z,14.60
2017-07-17T21:58:11.376Z,14.50
2017-07-17T22:00:39.635Z,14.50
2017-07-17T22:03:07.936Z,14.40
2017-07-17T22:05:36.800Z,14.40
2017-07-17T22:08:05.109Z,14.50
2017-07-17T22:10:33.378Z,14.50
2017-07-17T22:13:01.643Z,14.40
2017-07-17T22:15:29.971Z,14.40
2017-07-17T22:17:58.232Z,14.30
2017-07-17T22:20:27.231Z,14.20
2017-07-17T22:22:56.262Z,14.10
2017-07-17T22:25:25.313Z,14.10
2017-07-17T22:27:53.753Z,14.10
2017-07-17T22:30:23.675Z,14.20
2017-07-17T22:32:51.930Z,14.20
2017-07-17T22:35:21.706Z,14.20
2017-07-17T22:37:49.961Z,14.30
2017-07-17T22:40:18.216Z,14.20
2017-07-17T22:42:46.467Z,14.10
2017-07-17T22:45:14.775Z,14.00
2017-07-17T22:47:43.018Z,13.90
2017-07-17T22:50:12.080Z,13.90
2017-07-17T22:52:40.364Z,13.90
2017-07-17T22:55:08.588Z,13.90
2017-07-17T22:57:36.844Z,13.80
2017-07-17T23:00:05.987Z,13.70
2017-07-17T23:02:34.227Z,13.80
2017-07-17T23:05:03.266Z,13.80
2017-07-17T23:07:31.543Z,13.70
2017-07-17T23:09:59.848Z,13.80
2017-07-17T23:12:28.091Z,13.70
2017-07-17T23:14:57.129Z,13.60
2017-07-17T23:17:25.345Z,13.50
2017-07-17T23:19:53.612Z,13.50
2017-07-17T23:22:22.056Z,13.50
2017-07-17T23:24:51.106Z,13.40
2017-07-17T23:27:19.354Z,13.40
2017-07-17T23:29:48.493Z,13.30
2017-07-17T23:32:16.835Z,13.30
2017-07-17T23:34:45.114Z,13.20
2017-07-17T23:37:14.365Z,13.20
2017-07-17T23:39:43.604Z,13.20
2017-07-17T23:42:13.460Z,13.20
2017-07-17T23:44:41.661Z,13.20
2017-07-17T23:47:09.962Z,13.10
2017-07-17T23:49:38.202Z,13.10
2017-07-17T23:52:06.477Z,13.00
2017-07-17T23:54:34.710Z,13.00
2017-07-17T23:57:03.755Z,13.10
2017-07-17T23:59:32.095Z,13.00
